logo
Search for airport 
image banner adimage banner adimage banner ad
image banner ad

OLRA - Rayak Airbase

Located in Houch Hala, Lebanon

ICAO - OLRA, IATA -

Data provided by Airmate  

General information

Coordinates: N33°51'6" E35°59'35"
Elevation is 2952 feet MSL.
Magnetic variation is 5° East
View others Airports in Beqaa Governorate

Operational data

Special qualification required
Current time UTC:
Current local time:
METAR: OLBA 220900Z 33011KT 8000 NSC 23/12 Q1021 NOSIG
TAF: TAF OLBA 220400Z 2206/2312 05005KT 8000 SCT026 BECMG 2209/2212 34005KT BECMG 2303/2306 04005KT SKC TEMPO 2306/2312 5000 DU
View NOTAMs / SUP AIP / TFR affecting this airport [VIEW]
Communications frequencies: [VIEW]

Runways:

RWY identifierQFULength (ft)Width (ft)SurfaceLDA (ft)
0443°9507148CON
22223°9507148CON

Airport contact information

Address: Houch Hala Lebanon

Satellite view of OLRA